Wetterdaten: Woche 03.05.10 - 09.05.10 (KW18)
Datum Zeit Temperatur Luftfeuchte Luftdruck Niederschlag Windrichtung Sonnenschein Solar Wind
03.05.2010 00:00 7,9 C 98 % 1009,2 hPa 0,4 l/m SW 0,00 h 0 W/m 12,2 km/h (2 Bft)
03.05.2010 01:00 7,6 C 97 % 1008,9 hPa 0,4 l/m SW 0,00 h 0 W/m 13,7 km/h (3 Bft)
03.05.2010 02:00 7,3 C 97 % 1008,8 hPa 0,2 l/m SW 0,00 h 0 W/m 17,0 km/h (3 Bft)
03.05.2010 03:00 6,9 C 97 % 1008,7 hPa 0,6 l/m SW 0,00 h 0 W/m 16,0 km/h (3 Bft)
03.05.2010 04:00 6,6 C 97 % 1009,1 hPa 0,8 l/m SW 0,00 h 0 W/m 16,6 km/h (3 Bft)
03.05.2010 05:00 6,1 C 97 % 1008,9 hPa 0,0 l/m S-SW 0,00 h 0 W/m 15,0 km/h (3 Bft)
03.05.2010 06:00 5,7 C 97 % 1008,8 hPa 0,0 l/m S-SW 0,00 h 9 W/m 12,5 km/h (3 Bft)
03.05.2010 07:00 5,8 C 96 % 1009,1 hPa 0,0 l/m S-SW 0,00 h 30 W/m 7,0 km/h (2 Bft)
03.05.2010 08:00 6,4 C 96 % 1009,1 hPa 0,2 l/m S-SW 0,00 h 123 W/m 5,7 km/h (1 Bft)
03.05.2010 09:00 7,5 C 94 % 1009,0 hPa 0,0 l/m O-SO 0,00 h 199 W/m 3,9 km/h (1 Bft)
03.05.2010 10:00 8,7 C 91 % 1009,2 hPa 0,0 l/m O-SO 0,00 h 276 W/m 3,5 km/h (1 Bft)
03.05.2010 11:00 9,8 C 88 % 1009,7 hPa 0,0 l/m W-NW 0,33 h 372 W/m 5,7 km/h (1 Bft)
03.05.2010 12:00 10,9 C 82 % 1009,8 hPa 0,0 l/m W-SW 0,25 h 425 W/m 8,0 km/h (2 Bft)
03.05.2010 13:00 12,6 C 74 % 1009,3 hPa 0,0 l/m W-NW 0,67 h 559 W/m 11,4 km/h (2 Bft)
03.05.2010 14:00 12,7 C 71 % 1009,3 hPa 0,0 l/m W 0,08 h 369 W/m 7,2 km/h (2 Bft)
03.05.2010 15:00 12,6 C 71 % 1009,8 hPa 0,0 l/m N-NW 0,00 h 280 W/m 9,9 km/h (2 Bft)
03.05.2010 16:00 11,8 C 77 % 1010,0 hPa 0,0 l/m N 0,17 h 270 W/m 13,7 km/h (3 Bft)
03.05.2010 17:00 11,7 C 75 % 1010,1 hPa 0,0 l/m N-NO 0,00 h 170 W/m 9,5 km/h (2 Bft)
03.05.2010 18:00 11,6 C 74 % 1010,3 hPa 0,0 l/m N-NO 0,00 h 111 W/m 7,5 km/h (2 Bft)
03.05.2010 19:00 11,4 C 73 % 1010,6 hPa 0,0 l/m O-NO 0,00 h 32 W/m 4,3 km/h (1 Bft)
03.05.2010 20:00 11,3 C 78 % 1011,0 hPa 0,0 l/m NO 0,00 h 11 W/m 5,1 km/h (1 Bft)
03.05.2010 21:00 10,6 C 81 % 1011,5 hPa 0,0 l/m N-NO 0,00 h 0 W/m 5,1 km/h (1 Bft)
03.05.2010 22:00 9,8 C 87 % 1012,0 hPa 0,6 l/m N-NO 0,00 h 0 W/m 8,4 km/h (2 Bft)
03.05.2010 23:00 9,0 C 90 % 1012,2 hPa 0,4 l/m NO 0,00 h 0 W/m 5,5 km/h (1 Bft)
04.05.2010 00:00 8,4 C 92 % 1012,2 hPa 0,2 l/m N-NO 0,00 h 0 W/m 6,1 km/h (2 Bft)
04.05.2010 01:00 8,0 C 93 % 1012,2 hPa 0,0 l/m N-NO 0,00 h 0 W/m 6,9 km/h (2 Bft)
04.05.2010 02:00 7,7 C 92 % 1012,1 hPa 0,0 l/m N-NO 0,00 h 0 W/m 7,9 km/h (2 Bft)
04.05.2010 03:00 7,5 C 92 % 1012,0 hPa 0,2 l/m N-NO 0,00 h 0 W/m 6,4 km/h (2 Bft)
04.05.2010 04:00 7,3 C 93 % 1011,8 hPa 0,0 l/m N-NO 0,00 h 0 W/m 11,9 km/h (2 Bft)
04.05.2010 05:00 7,4 C 94 % 1011,4 hPa 0,2 l/m N-NO 0,00 h 0 W/m 17,2 km/h (3 Bft)
04.05.2010 06:00 7,4 C 94 % 1011,5 hPa 0,0 l/m NO 0,00 h 10 W/m 16,5 km/h (3 Bft)
04.05.2010 07:00 7,5 C 95 % 1011,2 hPa 0,0 l/m O-NO 0,00 h 34 W/m 20,6 km/h (4 Bft)
04.05.2010 08:00 7,9 C 94 % 1011,3 hPa 0,0 l/m NO 0,00 h 56 W/m 17,7 km/h (3 Bft)
04.05.2010 09:00 8,4 C 93 % 1011,0 hPa 0,0 l/m NO 0,00 h 103 W/m 17,7 km/h (3 Bft)
04.05.2010 10:00 9,1 C 91 % 1011,0 hPa 0,0 l/m O-NO 0,00 h 140 W/m 19,8 km/h (4 Bft)
04.05.2010 11:00 9,9 C 88 % 1010,9 hPa 0,0 l/m O-NO 0,00 h 219 W/m 23,0 km/h (4 Bft)
04.05.2010 12:00 10,5 C 84 % 1010,5 hPa 0,0 l/m O-NO 0,00 h 145 W/m 23,4 km/h (4 Bft)
04.05.2010 13:00 10,1 C 87 % 1010,1 hPa 0,0 l/m NO 0,00 h 86 W/m 22,2 km/h (4 Bft)
04.05.2010 14:00 9,5 C 92 % 1010,4 hPa 0,2 l/m NO 0,00 h 64 W/m 18,6 km/h (3 Bft)
04.05.2010 15:00 9,4 C 95 % 1010,2 hPa 0,0 l/m NO 0,00 h 88 W/m 22,5 km/h (4 Bft)
04.05.2010 16:00 9,6 C 95 % 1009,9 hPa 0,6 l/m NO 0,00 h 56 W/m 22,2 km/h (4 Bft)
04.05.2010 17:00 9,6 C 95 % 1009,8 hPa 1,0 l/m NO 0,00 h 74 W/m 20,1 km/h (4 Bft)
04.05.2010 18:00 9,6 C 94 % 1009,9 hPa 0,0 l/m O-NO 0,00 h 57 W/m 25,9 km/h (4 Bft)
04.05.2010 19:00 9,3 C 94 % 1009,7 hPa 0,0 l/m NO 0,00 h 10 W/m 23,8 km/h (4 Bft)
04.05.2010 20:00 9,1 C 94 % 1009,9 hPa 0,0 l/m O-NO 0,00 h 5 W/m 26,3 km/h (4 Bft)
04.05.2010 21:00 8,8 C 94 % 1009,9 hPa 0,0 l/m O-NO 0,00 h 0 W/m 28,4 km/h (4 Bft)
04.05.2010 22:00 8,6 C 95 % 1010,3 hPa 0,0 l/m O-NO 0,00 h 0 W/m 26,7 km/h (4 Bft)
04.05.2010 23:00 8,3 C 94 % 1010,4 hPa 0,0 l/m NO 0,00 h 0 W/m 28,4 km/h (4 Bft)
05.05.2010 00:00 8,3 C 93 % 1010,7 hPa 0,0 l/m O-NO 0,00 h 0 W/m 27,4 km/h (4 Bft)
05.05.2010 01:00 7,9 C 93 % 1010,4 hPa 0,0 l/m O-NO 0,00 h 0 W/m 28,2 km/h (4 Bft)
05.05.2010 02:00 7,7 C 93 % 1009,9 hPa 0,0 l/m NO 0,00 h 0 W/m 27,8 km/h (4 Bft)
05.05.2010 03:00 7,2 C 96 % 1009,9 hPa 0,0 l/m NO 0,00 h 0 W/m 18,0 km/h (3 Bft)
05.05.2010 04:00 7,1 C 96 % 1009,6 hPa 0,2 l/m NO 0,00 h 0 W/m 22,5 km/h (4 Bft)
05.05.2010 05:00 6,8 C 96 % 1009,1 hPa 0,0 l/m O-NO 0,00 h 0 W/m 25,7 km/h (4 Bft)
05.05.2010 06:00 6,6 C 96 % 1009,1 hPa 0,2 l/m N-NO 0,00 h 5 W/m 24,5 km/h (4 Bft)
05.05.2010 07:00 6,1 C 96 % 1008,8 hPa 0,2 l/m NO 0,00 h 16 W/m 19,7 km/h (3 Bft)
05.05.2010 08:00 6,0 C 97 % 1008,6 hPa 0,2 l/m NO 0,00 h 38 W/m 22,9 km/h (4 Bft)
05.05.2010 09:00 6,1 C 97 % 1008,0 hPa 0,0 l/m NO 0,00 h 64 W/m 24,3 km/h (4 Bft)
05.05.2010 10:00 6,2 C 97 % 1007,5 hPa 0,2 l/m NO 0,00 h 66 W/m 24,3 km/h (4 Bft)
05.05.2010 11:00 6,6 C 97 % 1006,9 hPa 0,0 l/m O-NO 0,00 h 82 W/m 24,4 km/h (4 Bft)
05.05.2010 12:00 6,7 C 97 % 1006,7 hPa 0,0 l/m O-NO 0,00 h 65 W/m 27,1 km/h (4 Bft)
05.05.2010 13:00 6,9 C 97 % 1006,3 hPa 0,0 l/m NO 0,00 h 49 W/m 27,4 km/h (4 Bft)
05.05.2010 14:00 7,1 C 97 % 1005,5 hPa 0,2 l/m O-NO 0,00 h 51 W/m 27,6 km/h (4 Bft)
05.05.2010 15:00 7,5 C 97 % 1004,6 hPa 0,2 l/m O-NO 0,00 h 49 W/m 29,5 km/h (5 Bft)
05.05.2010 16:00 7,7 C 97 % 1003,3 hPa 0,2 l/m NO 0,00 h 57 W/m 27,4 km/h (4 Bft)
05.05.2010 17:00 8,0 C 96 % 1002,4 hPa 0,0 l/m O-NO 0,00 h 39 W/m 31,7 km/h (5 Bft)
05.05.2010 18:00 7,8 C 95 % 1002,3 hPa 0,0 l/m O-NO 0,00 h 17 W/m 28,2 km/h (4 Bft)
05.05.2010 19:00 7,6 C 96 % 1002,0 hPa 0,0 l/m O-NO 0,00 h 7 W/m 25,9 km/h (4 Bft)
05.05.2010 20:00 7,4 C 97 % 1002,0 hPa 0,0 l/m O-NO 0,00 h 0 W/m 20,0 km/h (4 Bft)
05.05.2010 21:00 7,4 C 97 % 1002,1 hPa 0,4 l/m NO 0,00 h 0 W/m 15,4 km/h (3 Bft)
05.05.2010 22:00 7,3 C 98 % 1001,9 hPa 0,4 l/m NO 0,00 h 0 W/m 15,6 km/h (3 Bft)
05.05.2010 23:00 7,2 C 98 % 1001,5 hPa 0,2 l/m NO 0,00 h 0 W/m 14,2 km/h (3 Bft)
06.05.2010 00:00 7,2 C 98 % 1001,1 hPa 0,2 l/m NO 0,00 h 0 W/m 14,9 km/h (3 Bft)
06.05.2010 01:00 7,2 C 98 % 1000,6 hPa 0,2 l/m NO 0,00 h 0 W/m 8,2 km/h (2 Bft)
06.05.2010 02:00 7,2 C 98 % 1000,0 hPa 0,0 l/m N-NO 0,00 h 0 W/m 9,8 km/h (2 Bft)
06.05.2010 03:00 7,2 C 98 % 999,6 hPa 0,0 l/m N-NO 0,00 h 0 W/m 8,3 km/h (2 Bft)
06.05.2010 04:00 7,2 C 98 % 999,5 hPa 0,2 l/m NO 0,00 h 0 W/m 5,8 km/h (1 Bft)
06.05.2010 05:00 7,2 C 98 % 999,1 hPa 0,2 l/m N-NO 0,00 h 0 W/m 3,2 km/h (1 Bft)
06.05.2010 06:00 7,2 C 98 % 999,3 hPa 0,2 l/m N-NW 0,00 h 6 W/m 2,9 km/h (1 Bft)
06.05.2010 07:00 7,3 C 98 % 999,5 hPa 0,4 l/m N-NW 0,00 h 27 W/m 2,0 km/h (1 Bft)
06.05.2010 08:00 7,6 C 98 % 999,3 hPa 0,4 l/m W 0,00 h 44 W/m 3,7 km/h (1 Bft)
06.05.2010 09:00 7,7 C 98 % 999,5 hPa 2,0 l/m W-NW 0,00 h 71 W/m 7,1 km/h (2 Bft)
06.05.2010 10:00 8,1 C 98 % 999,4 hPa 1,0 l/m W 0,00 h 186 W/m 11,3 km/h (2 Bft)
06.05.2010 11:00 8,5 C 96 % 999,6 hPa 0,2 l/m W-SW 0,00 h 126 W/m 12,2 km/h (2 Bft)
06.05.2010 12:00 8,6 C 95 % 999,8 hPa 0,2 l/m W 0,00 h 131 W/m 10,8 km/h (2 Bft)
06.05.2010 13:00 8,6 C 94 % 1000,0 hPa 0,0 l/m SW 0,00 h 105 W/m 11,6 km/h (2 Bft)
06.05.2010 14:00 8,7 C 93 % 1000,0 hPa 0,0 l/m W 0,00 h 99 W/m 13,6 km/h (3 Bft)
06.05.2010 15:00 8,7 C 93 % 1000,2 hPa 0,0 l/m W-NW 0,00 h 66 W/m 9,0 km/h (2 Bft)
06.05.2010 16:00 8,2 C 92 % 1000,5 hPa 0,4 l/m W-NW 0,00 h 45 W/m 10,1 km/h (2 Bft)
06.05.2010 17:00 7,8 C 93 % 1000,8 hPa 0,2 l/m NW 0,00 h 50 W/m 6,8 km/h (2 Bft)
06.05.2010 18:00 7,4 C 94 % 1001,2 hPa 0,2 l/m NW 0,00 h 20 W/m 6,4 km/h (2 Bft)
06.05.2010 19:00 7,2 C 94 % 1001,6 hPa 0,2 l/m W-NW 0,00 h 16 W/m 6,7 km/h (2 Bft)
06.05.2010 20:00 6,6 C 94 % 1002,1 hPa 0,6 l/m W 0,00 h 5 W/m 11,3 km/h (2 Bft)
06.05.2010 21:00 5,9 C 95 % 1002,9 hPa 1,0 l/m W 0,00 h 0 W/m 8,3 km/h (2 Bft)
06.05.2010 22:00 5,5 C 95 % 1003,5 hPa 1,2 l/m SW 0,00 h 0 W/m 12,9 km/h (3 Bft)
06.05.2010 23:00 5,1 C 94 % 1003,7 hPa 0,4 l/m SW 0,00 h 0 W/m 15,7 km/h (3 Bft)
07.05.2010 00:00 4,9 C 94 % 1003,8 hPa 0,4 l/m W-SW 0,00 h 0 W/m 14,5 km/h (3 Bft)
07.05.2010 01:00 4,6 C 94 % 1003,8 hPa 0,6 l/m W-SW 0,00 h 0 W/m 16,9 km/h (3 Bft)
07.05.2010 02:00 4,3 C 94 % 1003,7 hPa 0,2 l/m W-SW 0,00 h 0 W/m 18,6 km/h (3 Bft)
07.05.2010 03:00 4,1 C 94 % 1003,8 hPa 1,2 l/m W-SW 0,00 h 0 W/m 18,6 km/h (3 Bft)
07.05.2010 04:00 3,7 C 95 % 1004,0 hPa 1,0 l/m W-SW 0,00 h 0 W/m 15,2 km/h (3 Bft)
07.05.2010 05:00 3,7 C 96 % 1004,1 hPa 1,0 l/m W-SW 0,00 h 0 W/m 10,5 km/h (2 Bft)
07.05.2010 06:00 3,8 C 97 % 1004,4 hPa 0,4 l/m SW 0,00 h 11 W/m 10,5 km/h (2 Bft)
07.05.2010 07:00 4,2 C 97 % 1004,9 hPa 0,4 l/m SW 0,00 h 40 W/m 9,4 km/h (2 Bft)
07.05.2010 08:00 4,9 C 97 % 1005,4 hPa 0,4 l/m SW 0,00 h 114 W/m 12,1 km/h (2 Bft)
07.05.2010 09:00 6,0 C 95 % 1005,6 hPa 0,0 l/m W-SW 0,25 h 206 W/m 18,5 km/h (3 Bft)
07.05.2010 10:00 6,2 C 93 % 1005,9 hPa 0,0 l/m W-SW 0,00 h 138 W/m 15,4 km/h (3 Bft)
07.05.2010 11:00 7,2 C 91 % 1006,3 hPa 0,0 l/m W 0,00 h 319 W/m 18,9 km/h (3 Bft)
07.05.2010 12:00 8,2 C 87 % 1006,5 hPa 0,0 l/m W-SW 0,08 h 367 W/m 18,6 km/h (3 Bft)
07.05.2010 13:00 9,0 C 83 % 1006,5 hPa 0,0 l/m W 0,17 h 425 W/m 17,0 km/h (3 Bft)
07.05.2010 14:00 9,9 C 77 % 1006,5 hPa 0,0 l/m W-NW 0,42 h 380 W/m 12,5 km/h (3 Bft)
07.05.2010 15:00 9,9 C 76 % 1006,6 hPa 0,0 l/m W-NW 0,00 h 190 W/m 7,8 km/h (2 Bft)
07.05.2010 16:00 10,5 C 72 % 1006,5 hPa 0,0 l/m W-SW 0,50 h 344 W/m 8,1 km/h (2 Bft)
07.05.2010 17:00 10,2 C 72 % 1006,5 hPa 0,0 l/m NW 0,00 h 154 W/m 6,3 km/h (2 Bft)
07.05.2010 18:00 10,0 C 73 % 1006,6 hPa 0,0 l/m N-NW 0,00 h 108 W/m 6,7 km/h (2 Bft)
07.05.2010 19:00 9,5 C 75 % 1006,9 hPa 0,0 l/m NO 0,00 h 31 W/m 6,1 km/h (2 Bft)
07.05.2010 20:00 9,2 C 78 % 1007,2 hPa 0,0 l/m NO 0,00 h 8 W/m 4,3 km/h (1 Bft)
07.05.2010 21:00 8,9 C 82 % 1007,6 hPa 0,0 l/m N 0,00 h 0 W/m 1,2 km/h (1 Bft)
07.05.2010 22:00 8,2 C 87 % 1007,9 hPa 0,0 l/m N 0,00 h 0 W/m 0,0 km/h (0 Bft)
07.05.2010 23:00 7,6 C 88 % 1008,0 hPa 0,0 l/m N 0,00 h 0 W/m 0,8 km/h (0 Bft)
08.05.2010 00:00 7,2 C 90 % 1007,8 hPa 0,0 l/m N 0,00 h 0 W/m 1,5 km/h (1 Bft)
08.05.2010 01:00 6,8 C 91 % 1007,8 hPa 0,0 l/m N 0,00 h 0 W/m 2,5 km/h (1 Bft)
08.05.2010 02:00 6,4 C 92 % 1007,6 hPa 0,0 l/m N 0,00 h 0 W/m 2,5 km/h (1 Bft)
08.05.2010 03:00 5,9 C 93 % 1007,4 hPa 0,0 l/m NO 0,00 h 0 W/m 2,4 km/h (1 Bft)
08.05.2010 04:00 5,8 C 95 % 1007,4 hPa 0,0 l/m NO 0,00 h 0 W/m 3,2 km/h (1 Bft)
08.05.2010 05:00 5,4 C 94 % 1007,4 hPa 0,0 l/m NO 0,00 h 0 W/m 4,1 km/h (1 Bft)
08.05.2010 06:00 4,8 C 95 % 1007,7 hPa 0,0 l/m NO 0,08 h 30 W/m 6,0 km/h (2 Bft)
08.05.2010 07:00 5,1 C 96 % 1007,9 hPa 0,0 l/m N-NW 0,08 h 87 W/m 5,2 km/h (1 Bft)
08.05.2010 08:00 6,7 C 94 % 1008,1 hPa 0,0 l/m N-NW 0,33 h 229 W/m 4,9 km/h (1 Bft)
08.05.2010 09:00 8,3 C 89 % 1008,3 hPa 0,0 l/m N-NW 0,33 h 309 W/m 3,7 km/h (1 Bft)
08.05.2010 10:00 11,0 C 80 % 1008,3 hPa 0,0 l/m N-NW 1,00 h 721 W/m 6,7 km/h (2 Bft)
08.05.2010 11:00 12,4 C 69 % 1008,1 hPa 0,0 l/m O-SO 0,75 h 547 W/m 8,0 km/h (2 Bft)
08.05.2010 12:00 13,1 C 60 % 1008,1 hPa 0,0 l/m O-SO 0,33 h 378 W/m 7,1 km/h (2 Bft)
08.05.2010 13:00 13,9 C 57 % 1008,1 hPa 0,0 l/m NO 0,58 h 498 W/m 7,8 km/h (2 Bft)
08.05.2010 14:00 14,2 C 55 % 1008,1 hPa 0,0 l/m O-NO 0,17 h 421 W/m 7,2 km/h (2 Bft)
08.05.2010 15:00 14,8 C 54 % 1007,9 hPa 0,0 l/m O 0,42 h 484 W/m 8,0 km/h (2 Bft)
08.05.2010 16:00 15,3 C 52 % 1007,7 hPa 0,0 l/m N 0,50 h 494 W/m 9,9 km/h (2 Bft)
08.05.2010 17:00 14,8 C 53 % 1007,7 hPa 0,0 l/m N-NO 0,00 h 178 W/m 5,3 km/h (1 Bft)
08.05.2010 18:00 14,7 C 54 % 1007,8 hPa 0,0 l/m O-NO 0,08 h 139 W/m 7,1 km/h (2 Bft)
08.05.2010 19:00 14,0 C 61 % 1007,8 hPa 0,0 l/m O 0,00 h 45 W/m 5,3 km/h (1 Bft)
08.05.2010 20:00 12,1 C 72 % 1008,2 hPa 0,0 l/m N 0,00 h 18 W/m 5,7 km/h (1 Bft)
08.05.2010 21:00 9,5 C 85 % 1008,5 hPa 0,0 l/m N 0,00 h 0 W/m 0,8 km/h (0 Bft)
08.05.2010 22:00 8,0 C 91 % 1008,8 hPa 0,0 l/m N 0,00 h 0 W/m 0,5 km/h (0 Bft)
08.05.2010 23:00 7,1 C 94 % 1008,5 hPa 0,0 l/m N 0,00 h 0 W/m 2,4 km/h (1 Bft)
09.05.2010 00:00 6,7 C 95 % 1008,5 hPa 0,0 l/m N 0,00 h 0 W/m 3,6 km/h (1 Bft)
09.05.2010 01:00 6,4 C 95 % 1008,4 hPa 0,0 l/m N 0,00 h 0 W/m 2,5 km/h (1 Bft)
09.05.2010 02:00 5,6 C 95 % 1008,2 hPa 0,0 l/m N 0,00 h 0 W/m 0,3 km/h (0 Bft)
09.05.2010 03:00 5,4 C 96 % 1008,3 hPa 0,0 l/m N 0,00 h 0 W/m 1,1 km/h (0 Bft)
09.05.2010 04:00 5,6 C 97 % 1008,7 hPa 0,0 l/m N 0,00 h 0 W/m 0,5 km/h (0 Bft)
09.05.2010 05:00 5,7 C 96 % 1008,7 hPa 0,0 l/m N 0,00 h 0 W/m 0,1 km/h (0 Bft)
09.05.2010 06:00 6,0 C 97 % 1008,9 hPa 0,4 l/m N 0,00 h 29 W/m 1,5 km/h (1 Bft)
09.05.2010 07:00 6,6 C 97 % 1008,8 hPa 0,0 l/m N 0,00 h 86 W/m 3,3 km/h (1 Bft)
09.05.2010 08:00 8,6 C 96 % 1008,8 hPa 0,0 l/m S-SW 0,58 h 248 W/m 9,1 km/h (2 Bft)
09.05.2010 09:00 10,3 C 91 % 1008,8 hPa 0,0 l/m S-SW 0,33 h 263 W/m 8,2 km/h (2 Bft)
09.05.2010 10:00 12,8 C 81 % 1008,5 hPa 0,0 l/m W-SW 0,83 h 587 W/m 12,1 km/h (2 Bft)
09.05.2010 11:00 14,4 C 70 % 1007,8 hPa 0,0 l/m W-SW 0,75 h 656 W/m 10,9 km/h (2 Bft)
09.05.2010 12:00 15,7 C 63 % 1007,3 hPa 0,0 l/m W 0,92 h 738 W/m 15,2 km/h (3 Bft)
09.05.2010 13:00 16,8 C 57 % 1006,6 hPa 0,0 l/m W-SW 0,83 h 833 W/m 14,8 km/h (3 Bft)
09.05.2010 14:00 17,1 C 55 % 1006,0 hPa 0,0 l/m W-SW 0,83 h 616 W/m 12,2 km/h (2 Bft)
09.05.2010 15:00 17,2 C 53 % 1005,6 hPa 0,0 l/m W-NW 0,75 h 476 W/m 12,8 km/h (3 Bft)
09.05.2010 16:00 15,8 C 62 % 1005,1 hPa 0,0 l/m N-NW 0,33 h 289 W/m 15,0 km/h (3 Bft)
09.05.2010 17:00 14,3 C 67 % 1005,1 hPa 0,0 l/m NW 0,00 h 127 W/m 12,1 km/h (2 Bft)
09.05.2010 18:00 14,0 C 69 % 1005,2 hPa 0,0 l/m N-NW 0,00 h 80 W/m 10,3 km/h (2 Bft)
09.05.2010 19:00 11,7 C 84 % 1005,7 hPa 0,8 l/m NW 0,00 h 21 W/m 15,8 km/h (3 Bft)
09.05.2010 20:00 10,3 C 93 % 1005,9 hPa 1,6 l/m N-NW 0,00 h 5 W/m 4,1 km/h (1 Bft)
09.05.2010 21:00 9,9 C 96 % 1006,0 hPa 0,8 l/m N 0,00 h 0 W/m 1,1 km/h (0 Bft)
09.05.2010 22:00 9,8 C 97 % 1005,8 hPa 0,4 l/m N 0,00 h 0 W/m 0,9 km/h (0 Bft)
09.05.2010 23:00 9,6 C 96 % 1005,9 hPa 0,4 l/m N 0,00 h 0 W/m 1,3 km/h (1 Bft)
Min-Datum _ 07.05.10 08.05.10 06.05.10 - - - - 03.05.10
_ Min-Zeit 05:05 17:05 05:20 - - - - 10:25
Minimum _ 3,6 C 49 % 998,8 hPa - - - - 0,0 km/h (0 Bft)
Max-Datum _ 09.05.10 03.05.10 04.05.10 06.05.10 - 03.05.10 03.05.10 04.05.10
_ Max-Zeit 15:05 00:00 00:55 09:15 - 11:25 14:25 18:45
Maximum _ 17,5 C 98 % 1012,4 hPa 2,0 l/m - 0,08 h 1069 W/m 38,6 km/h
O-NO (5 Bft)
Durchschnitt _ 8,6 C 88 % 1006,9 hPa #28,0 l/m NO #13:45 h 177 W/m 12,1 km/h (2 Bft)